createdAt,value
2023-03-16T00:00:19.365Z,2.15
2023-03-16T00:02:46.667Z,2.10
2023-03-16T00:05:16.708Z,2.00
2023-03-16T00:07:43.918Z,2.38
2023-03-16T00:10:12.723Z,2.10
2023-03-16T00:12:40.154Z,1.80
2023-03-16T00:15:07.746Z,2.08
2023-03-16T00:17:35.019Z,2.15
2023-03-16T00:20:06.925Z,2.28
2023-03-16T00:22:34.692Z,2.17
2023-03-16T00:25:02.040Z,1.85
2023-03-16T00:27:29.621Z,1.73
2023-03-16T00:29:57.277Z,1.90
2023-03-16T00:32:36.140Z,3.33
2023-03-16T00:35:08.803Z,1.83
2023-03-16T00:37:39.685Z,1.85
2023-03-16T00:40:08.084Z,1.95
2023-03-16T00:42:35.447Z,1.92
2023-03-16T00:45:02.949Z,2.25
2023-03-16T00:47:33.205Z,2.20
2023-03-16T00:50:01.797Z,2.10
2023-03-16T00:52:30.220Z,1.98
2023-03-16T00:54:58.499Z,1.90
2023-03-16T00:57:27.874Z,3.17
2023-03-16T00:59:56.320Z,2.70
2023-03-16T01:02:24.815Z,2.08
2023-03-16T01:04:54.841Z,1.48
2023-03-16T01:07:22.687Z,2.08
2023-03-16T01:09:51.148Z,2.63
2023-03-16T01:12:19.907Z,2.13
2023-03-16T01:14:47.823Z,2.80
2023-03-16T01:17:17.279Z,3.38
2023-03-16T01:19:45.266Z,2.22
2023-03-16T01:22:13.042Z,3.13
2023-03-16T01:24:42.636Z,2.42
2023-03-16T01:27:09.801Z,2.08
2023-03-16T01:29:38.470Z,1.83
2023-03-16T01:32:06.423Z,2.35
2023-03-16T01:34:34.814Z,1.55
2023-03-16T01:37:02.833Z,1.92
2023-03-16T01:39:50.262Z,2.50
2023-03-16T01:42:17.955Z,1.65
2023-03-16T01:44:56.237Z,1.88
2023-03-16T01:47:28.581Z,1.30
2023-03-16T01:49:57.530Z,1.35
2023-03-16T01:52:33.461Z,1.58
2023-03-16T01:55:13.162Z,1.40
2023-03-16T01:57:46.046Z,1.65
2023-03-16T02:00:19.780Z,1.52
2023-03-16T02:03:13.903Z,1.52
2023-03-16T02:05:50.475Z,2.17
2023-03-16T02:08:18.799Z,1.48
2023-03-16T02:10:46.687Z,1.58
2023-03-16T02:13:14.059Z,1.30
2023-03-16T02:15:41.365Z,2.00
2023-03-16T02:18:09.482Z,2.08
2023-03-16T02:21:16.459Z,1.77
2023-03-16T02:23:47.162Z,2.22
2023-03-16T02:26:55.112Z,1.92
2023-03-16T02:29:49.449Z,2.80
2023-03-16T02:32:18.951Z,3.90
2023-03-16T02:34:46.265Z,2.97
2023-03-16T02:37:14.066Z,2.20
2023-03-16T02:39:45.088Z,4.97
2023-03-16T02:42:19.433Z,2.38
2023-03-16T02:44:52.233Z,3.08
2023-03-16T02:47:37.882Z,3.10
2023-03-16T02:50:06.947Z,3.17
2023-03-16T02:52:35.483Z,3.63
2023-03-16T02:55:04.372Z,2.95
2023-03-16T02:57:31.857Z,3.08
2023-03-16T03:00:11.680Z,5.47
2023-03-16T03:02:39.909Z,2.60
2023-03-16T03:05:07.418Z,2.67
2023-03-16T03:07:34.494Z,2.35
2023-03-16T03:10:08.915Z,2.60
2023-03-16T03:12:36.124Z,2.80
2023-03-16T03:15:07.189Z,3.40
2023-03-16T03:17:43.099Z,3.45
2023-03-16T03:20:16.997Z,3.42
2023-03-16T03:22:46.614Z,2.70
2023-03-16T03:25:16.365Z,2.20
2023-03-16T03:27:44.781Z,2.65
2023-03-16T03:30:18.804Z,3.00
2023-03-16T03:32:48.399Z,3.20
2023-03-16T03:35:17.460Z,2.78
2023-03-16T03:37:45.000Z,3.08
2023-03-16T03:40:16.076Z,2.70
2023-03-16T03:42:46.032Z,5.53
2023-03-16T03:45:14.327Z,2.90
2023-03-16T03:47:44.680Z,2.63
2023-03-16T03:50:17.477Z,3.85
2023-03-16T03:53:01.853Z,2.55
2023-03-16T03:55:31.801Z,3.17
2023-03-16T03:57:58.897Z,2.30
2023-03-16T04:00:26.536Z,2.60
2023-03-16T04:02:54.648Z,3.13
2023-03-16T04:05:32.037Z,2.92
2023-03-16T04:07:59.357Z,3.28
2023-03-16T04:10:28.865Z,3.00
2023-03-16T04:12:57.772Z,2.95
2023-03-16T04:15:26.218Z,2.53
2023-03-16T04:18:05.389Z,2.45
2023-03-16T04:20:32.705Z,3.00
2023-03-16T04:23:00.434Z,1.90
2023-03-16T04:25:30.534Z,2.75
2023-03-16T04:27:58.958Z,2.40
2023-03-16T04:30:31.117Z,2.58
2023-03-16T04:33:10.820Z,2.22
2023-03-16T04:35:38.026Z,2.72
2023-03-16T04:38:05.246Z,2.90
2023-03-16T04:40:43.922Z,2.92
2023-03-16T04:43:15.272Z,3.67
2023-03-16T04:45:43.286Z,2.63
2023-03-16T04:48:10.996Z,2.35
2023-03-16T04:50:38.895Z,3.22
2023-03-16T04:53:06.103Z,2.17
2023-03-16T04:55:33.496Z,2.85
2023-03-16T04:58:02.144Z,2.55
2023-03-16T05:00:33.758Z,2.60
2023-03-16T05:03:10.321Z,2.58
2023-03-16T05:05:39.334Z,3.00
2023-03-16T05:08:07.405Z,3.03
2023-03-16T05:10:36.376Z,3.78
2023-03-16T05:13:03.727Z,2.78
2023-03-16T05:15:31.475Z,3.45
2023-03-16T05:18:03.192Z,2.92
2023-03-16T05:20:31.570Z,2.88
2023-03-16T05:23:01.556Z,2.78
2023-03-16T05:25:31.841Z,2.10
2023-03-16T05:28:03.316Z,1.88
2023-03-16T05:30:53.111Z,1.70
2023-03-16T05:33:24.695Z,1.98
2023-03-16T05:35:58.206Z,1.27
2023-03-16T05:38:27.592Z,2.10
2023-03-16T05:40:55.523Z,1.50
2023-03-16T05:43:35.985Z,1.95
2023-03-16T05:46:03.881Z,2.40
2023-03-16T05:48:31.631Z,1.88
2023-03-16T05:51:00.230Z,2.33
2023-03-16T05:53:29.552Z,1.98
2023-03-16T05:56:03.748Z,1.85
2023-03-16T05:58:34.088Z,2.97
2023-03-16T06:01:05.809Z,3.00
2023-03-16T06:03:32.909Z,2.08
2023-03-16T06:06:02.180Z,2.10
2023-03-16T06:08:38.769Z,2.35
2023-03-16T06:11:12.247Z,2.05
2023-03-16T06:13:40.873Z,2.78
2023-03-16T06:16:08.968Z,2.75
2023-03-16T06:18:36.484Z,3.45
2023-03-16T06:21:04.473Z,2.15
2023-03-16T06:23:34.149Z,2.95
2023-03-16T06:26:02.033Z,2.65
2023-03-16T06:28:31.419Z,2.50
2023-03-16T06:30:59.098Z,2.20
2023-03-16T06:33:31.627Z,2.17
2023-03-16T06:35:58.929Z,2.45
2023-03-16T06:38:34.014Z,2.05
2023-03-16T06:41:08.657Z,2.15
2023-03-16T06:43:36.857Z,1.98
2023-03-16T06:46:04.562Z,1.83
2023-03-16T06:48:31.822Z,2.47
2023-03-16T06:50:59.181Z,2.30
2023-03-16T06:53:28.347Z,2.85
2023-03-16T06:55:56.787Z,1.42
2023-03-16T06:58:24.910Z,2.33
2023-03-16T07:00:53.971Z,2.28
2023-03-16T07:03:21.665Z,1.77
2023-03-16T07:05:54.976Z,1.75
2023-03-16T07:08:22.169Z,1.75
2023-03-16T07:10:51.852Z,1.52
2023-03-16T07:13:19.403Z,1.30
2023-03-16T07:15:46.557Z,1.58
2023-03-16T07:18:13.806Z,1.30
2023-03-16T07:20:42.237Z,1.67
2023-03-16T07:23:09.386Z,1.10
2023-03-16T07:25:36.668Z,2.05
2023-03-16T07:28:05.043Z,1.83
2023-03-16T07:30:38.862Z,1.10
2023-03-16T07:33:08.438Z,1.60
2023-03-16T07:35:35.896Z,1.15
2023-03-16T07:38:04.307Z,1.05
2023-03-16T07:40:32.193Z,1.27
2023-03-16T07:43:06.869Z,0.95
2023-03-16T07:45:36.352Z,0.82
2023-03-16T07:48:05.021Z,1.17
2023-03-16T07:50:54.373Z,1.02
2023-03-16T07:53:22.810Z,0.80
2023-03-16T07:58:22.160Z,0.80
2023-03-16T08:00:50.282Z,1.05
2023-03-16T08:03:17.583Z,0.57
2023-03-16T08:05:45.806Z,0.55
2023-03-16T08:08:16.200Z,0.77
2023-03-16T08:10:44.199Z,1.02
2023-03-16T08:13:15.362Z,1.20
2023-03-16T08:15:58.613Z,1.13
2023-03-16T08:18:34.835Z,0.80
2023-03-16T08:21:02.361Z,1.02
2023-03-16T08:23:30.735Z,0.70
2023-03-16T08:25:58.203Z,1.20
2023-03-16T08:28:27.180Z,0.90
2023-03-16T08:30:56.215Z,1.02
2023-03-16T08:33:48.025Z,0.68
2023-03-16T08:36:19.094Z,1.58
2023-03-16T08:39:05.657Z,1.23
2023-03-16T08:41:38.010Z,1.30
2023-03-16T08:44:10.823Z,0.93
2023-03-16T08:46:38.070Z,1.20
2023-03-16T08:49:06.962Z,1.15
2023-03-16T08:51:34.425Z,1.10
2023-03-16T08:54:01.665Z,1.23
2023-03-16T08:56:30.667Z,0.80
2023-03-16T08:58:58.687Z,1.30
2023-03-16T09:01:26.669Z,1.73
2023-03-16T09:03:55.136Z,0.98
2023-03-16T09:06:22.556Z,1.17
2023-03-16T09:08:49.919Z,1.42
2023-03-16T09:11:19.109Z,1.00
2023-03-16T09:13:47.361Z,2.25
2023-03-16T09:16:16.158Z,1.23
2023-03-16T09:18:43.797Z,1.38
2023-03-16T09:21:13.943Z,1.23
2023-03-16T09:23:43.048Z,1.40
2023-03-16T09:26:12.571Z,2.55
2023-03-16T09:28:42.292Z,1.63
2023-03-16T09:31:17.924Z,1.55
2023-03-16T09:33:46.339Z,1.58
2023-03-16T09:36:14.259Z,1.27
2023-03-16T09:38:42.551Z,1.73
2023-03-16T09:41:39.182Z,1.40
2023-03-16T09:44:29.289Z,2.13
2023-03-16T09:47:00.922Z,2.05
2023-03-16T09:49:38.145Z,1.45
2023-03-16T09:52:35.161Z,1.35
2023-03-16T09:55:30.320Z,1.60
2023-03-16T09:57:59.033Z,1.50
2023-03-16T10:00:39.681Z,1.02
2023-03-16T10:03:29.887Z,1.50
2023-03-16T10:06:03.949Z,1.98
2023-03-16T10:08:45.844Z,2.42
2023-03-16T10:11:24.486Z,1.92
2023-03-16T10:14:20.676Z,1.90
2023-03-16T10:17:17.796Z,2.50
2023-03-16T10:19:58.206Z,1.77
2023-03-16T10:22:30.160Z,1.95
2023-03-16T10:25:16.055Z,2.15
2023-03-16T10:27:46.117Z,2.20
2023-03-16T10:30:24.738Z,1.67
2023-03-16T10:32:52.813Z,2.30
2023-03-16T10:35:31.033Z,1.92
2023-03-16T10:37:58.732Z,1.83
2023-03-16T10:40:26.545Z,2.08
2023-03-16T10:42:54.217Z,1.98
2023-03-16T10:45:31.339Z,1.67
2023-03-16T10:48:20.649Z,1.40
2023-03-16T10:50:54.533Z,2.30
2023-03-16T10:53:34.736Z,1.80
2023-03-16T10:56:11.854Z,1.60
2023-03-16T10:58:46.249Z,1.88
2023-03-16T11:01:23.971Z,1.42
2023-03-16T11:03:55.625Z,1.85
2023-03-16T11:06:30.802Z,1.90
2023-03-16T11:09:10.590Z,1.40
2023-03-16T11:11:37.994Z,2.22
2023-03-16T11:14:14.182Z,2.42
2023-03-16T11:17:10.690Z,1.30
2023-03-16T11:19:48.631Z,1.75
2023-03-16T11:22:20.038Z,1.45
2023-03-16T11:25:12.698Z,1.35
2023-03-16T11:28:04.396Z,1.67
2023-03-16T11:30:40.290Z,1.23
2023-03-16T11:33:14.197Z,1.17
2023-03-16T11:36:20.437Z,2.17
2023-03-16T11:39:06.955Z,1.67
2023-03-16T11:42:05.367Z,1.17
2023-03-16T11:44:51.627Z,1.77
2023-03-16T11:47:28.873Z,1.73
2023-03-16T11:49:56.944Z,1.48
2023-03-16T11:52:44.001Z,1.58
2023-03-16T11:55:19.903Z,1.27
2023-03-16T11:57:55.903Z,2.28
2023-03-16T12:00:32.272Z,1.92
2023-03-16T12:03:23.143Z,1.08
2023-03-16T12:06:22.478Z,1.55
2023-03-16T12:09:14.795Z,1.40
2023-03-16T12:12:07.519Z,1.63
2023-03-16T12:17:16.050Z,1.10
2023-03-16T12:19:50.489Z,1.30
2023-03-16T12:22:22.785Z,1.83
2023-03-16T12:27:38.945Z,1.27
2023-03-16T12:30:28.079Z,1.73
2023-03-16T12:33:34.509Z,1.77
2023-03-16T12:36:19.430Z,2.13
2023-03-16T12:38:49.264Z,1.40
2023-03-16T12:41:39.180Z,1.77
2023-03-16T12:44:32.506Z,2.35
2023-03-16T12:47:08.539Z,2.08
2023-03-16T12:49:37.200Z,2.50
2023-03-16T12:52:11.464Z,1.38
2023-03-16T12:54:53.363Z,1.80
2023-03-16T12:57:25.482Z,1.58
2023-03-16T12:59:58.468Z,1.63
2023-03-16T13:02:31.567Z,1.75
2023-03-16T13:05:08.474Z,1.63
2023-03-16T13:07:37.751Z,1.70
2023-03-16T13:10:13.960Z,1.85
2023-03-16T13:12:44.453Z,1.58
2023-03-16T13:15:22.223Z,1.70
2023-03-16T13:18:02.471Z,1.50
2023-03-16T13:20:34.030Z,1.80
2023-03-16T13:23:22.426Z,1.88
2023-03-16T13:26:23.437Z,2.50
2023-03-16T13:28:53.074Z,1.75
2023-03-16T13:31:36.140Z,2.00
2023-03-16T13:34:06.912Z,1.90
2023-03-16T13:36:35.660Z,1.85
2023-03-16T13:39:23.711Z,2.10
2023-03-16T13:42:03.822Z,2.83
2023-03-16T13:44:32.260Z,2.35
2023-03-16T13:47:07.560Z,2.45
2023-03-16T13:49:44.386Z,1.67
2023-03-16T13:52:21.320Z,2.25
2023-03-16T13:54:50.385Z,2.42
2023-03-16T13:57:24.355Z,2.42
2023-03-16T13:59:59.133Z,1.92
2023-03-16T14:02:26.758Z,2.30
2023-03-16T14:04:55.069Z,2.05
2023-03-16T14:07:24.735Z,2.67
2023-03-16T14:09:54.086Z,2.50
2023-03-16T14:12:21.537Z,2.60
2023-03-16T14:14:55.128Z,1.80
2023-03-16T14:17:24.319Z,2.45
2023-03-16T14:20:02.555Z,2.15
2023-03-16T14:22:34.884Z,1.90
2023-03-16T14:25:04.840Z,1.13
2023-03-16T14:27:42.140Z,1.85
2023-03-16T14:30:26.057Z,1.48
2023-03-16T14:33:04.942Z,1.92
2023-03-16T14:35:41.473Z,1.92
2023-03-16T14:38:37.025Z,2.00
2023-03-16T14:41:19.725Z,2.20
2023-03-16T14:43:49.786Z,1.75
2023-03-16T14:46:30.897Z,1.75
2023-03-16T14:49:28.111Z,1.83
2023-03-16T14:52:06.118Z,1.40
2023-03-16T14:54:33.427Z,1.73
2023-03-16T14:57:03.933Z,2.03
2023-03-16T14:59:31.870Z,1.50
2023-03-16T15:02:00.951Z,2.25
2023-03-16T15:04:34.622Z,2.08
2023-03-16T15:07:07.185Z,1.92
2023-03-16T15:09:40.149Z,2.17
2023-03-16T15:12:19.611Z,1.55
2023-03-16T15:15:06.105Z,1.58
2023-03-16T15:17:33.739Z,1.67
2023-03-16T15:20:01.343Z,2.72
2023-03-16T15:22:33.959Z,1.40
2023-03-16T15:25:24.519Z,1.73
2023-03-16T15:27:54.025Z,1.70
2023-03-16T15:30:26.769Z,1.70
2023-03-16T15:32:54.235Z,1.52
2023-03-16T15:35:21.598Z,1.30
2023-03-16T15:37:48.926Z,2.05
2023-03-16T15:40:16.419Z,1.85
2023-03-16T15:42:46.419Z,1.70
2023-03-16T15:45:18.011Z,1.63
2023-03-16T15:47:45.440Z,2.17
2023-03-16T15:50:15.723Z,1.70
2023-03-16T15:52:50.006Z,2.05
2023-03-16T15:55:24.386Z,1.77
2023-03-16T15:58:00.054Z,2.20
2023-03-16T16:00:35.002Z,1.58
2023-03-16T16:03:03.501Z,2.30
2023-03-16T16:05:31.794Z,2.25
2023-03-16T16:08:00.185Z,1.60
2023-03-16T16:10:28.786Z,1.67
2023-03-16T16:12:57.182Z,1.52
2023-03-16T16:15:31.103Z,1.80
2023-03-16T16:18:19.665Z,1.95
2023-03-16T16:20:46.153Z,1.70
2023-03-16T16:23:13.974Z,1.90
2023-03-16T16:25:42.554Z,1.88
2023-03-16T16:28:19.546Z,1.83
2023-03-16T16:30:47.560Z,1.73
2023-03-16T16:33:35.740Z,1.85
2023-03-16T16:36:06.122Z,1.98
2023-03-16T16:38:33.842Z,2.05
2023-03-16T16:41:02.867Z,1.92
2023-03-16T16:43:42.855Z,2.20
2023-03-16T16:46:25.223Z,2.20
2023-03-16T16:49:19.639Z,1.90
2023-03-16T16:51:47.620Z,2.08
2023-03-16T16:54:20.426Z,2.17
2023-03-16T16:56:50.147Z,2.47
2023-03-16T16:59:19.672Z,1.73
2023-03-16T17:01:48.406Z,1.63
2023-03-16T17:04:25.485Z,2.10
2023-03-16T17:07:02.206Z,2.33
2023-03-16T17:09:30.420Z,1.60
2023-03-16T17:12:02.111Z,1.85
2023-03-16T17:14:31.453Z,1.70
2023-03-16T17:17:07.061Z,1.85
2023-03-16T17:19:34.344Z,2.03
2023-03-16T17:22:01.648Z,2.85
2023-03-16T17:24:29.751Z,1.75
2023-03-16T17:27:00.417Z,1.95
2023-03-16T17:29:33.777Z,1.60
2023-03-16T17:32:03.263Z,2.10
2023-03-16T17:34:33.370Z,2.10
2023-03-16T17:37:02.103Z,2.30
2023-03-16T17:39:32.177Z,1.80
2023-03-16T17:42:07.042Z,2.75
2023-03-16T17:44:45.871Z,1.88
2023-03-16T17:47:14.860Z,2.05
2023-03-16T17:49:44.826Z,1.95
2023-03-16T17:52:19.010Z,2.25
2023-03-16T17:54:52.085Z,1.85
2023-03-16T17:57:31.313Z,1.52
2023-03-16T18:00:04.353Z,1.70
2023-03-16T18:02:38.252Z,1.60
2023-03-16T18:05:08.807Z,2.55
2023-03-16T18:07:36.592Z,3.08
2023-03-16T18:10:04.124Z,2.75
2023-03-16T18:12:31.759Z,2.80
2023-03-16T18:14:59.132Z,2.20
2023-03-16T18:17:31.107Z,2.97
2023-03-16T18:19:59.175Z,2.38
2023-03-16T18:22:26.537Z,2.80
2023-03-16T18:24:55.131Z,2.55
2023-03-16T18:27:22.734Z,2.33
2023-03-16T18:29:49.898Z,3.03
2023-03-16T18:32:19.999Z,2.83
2023-03-16T18:34:47.541Z,2.67
2023-03-16T18:37:23.131Z,2.03
2023-03-16T18:39:52.141Z,2.53
2023-03-16T18:42:21.689Z,2.38
2023-03-16T18:44:49.234Z,2.70
2023-03-16T18:47:19.856Z,2.47
2023-03-16T18:49:49.990Z,1.85
2023-03-16T18:52:24.118Z,2.08
2023-03-16T18:54:53.104Z,1.98
2023-03-16T18:57:23.310Z,2.25
2023-03-16T18:59:51.066Z,1.80
2023-03-16T19:02:44.351Z,1.98
2023-03-16T19:05:17.459Z,1.70
2023-03-16T19:07:51.431Z,1.52
2023-03-16T19:10:26.518Z,2.53
2023-03-16T19:12:54.972Z,1.98
2023-03-16T19:15:29.066Z,1.83
2023-03-16T19:17:57.481Z,1.50
2023-03-16T19:20:28.433Z,1.85
2023-03-16T19:23:07.439Z,2.63
2023-03-16T19:25:37.954Z,1.92
2023-03-16T19:28:06.678Z,1.88
2023-03-16T19:30:35.751Z,2.10
2023-03-16T19:33:03.410Z,2.22
2023-03-16T19:35:50.377Z,1.92
2023-03-16T19:38:18.713Z,1.77
2023-03-16T19:40:49.048Z,2.22
2023-03-16T19:43:20.744Z,1.80
2023-03-16T19:45:48.474Z,1.77
2023-03-16T19:48:21.424Z,2.10
2023-03-16T19:50:50.699Z,2.25
2023-03-16T19:53:23.161Z,2.88
2023-03-16T19:55:52.604Z,2.15
2023-03-16T19:58:32.131Z,2.13
2023-03-16T20:01:01.192Z,2.35
2023-03-16T20:03:29.976Z,2.33
2023-03-16T20:05:57.149Z,2.10
2023-03-16T20:08:29.149Z,2.13
2023-03-16T20:11:06.590Z,2.58
2023-03-16T20:13:34.793Z,2.33
2023-03-16T20:16:03.414Z,3.08
2023-03-16T20:18:30.761Z,2.80
2023-03-16T20:20:58.068Z,2.63
2023-03-16T20:23:30.518Z,2.10
2023-03-16T20:26:02.851Z,2.53
2023-03-16T20:28:37.209Z,2.17
2023-03-16T20:31:09.307Z,2.47
2023-03-16T20:33:38.015Z,2.63
2023-03-16T20:36:05.717Z,2.08
2023-03-16T20:38:32.923Z,2.53
2023-03-16T20:41:01.171Z,3.45
2023-03-16T20:43:31.478Z,2.85
2023-03-16T20:46:04.014Z,2.70
2023-03-16T20:48:32.225Z,4.50
2023-03-16T20:51:00.834Z,5.07
2023-03-16T20:53:28.403Z,3.90
2023-03-16T20:55:56.634Z,4.75
2023-03-16T20:58:29.602Z,3.85
2023-03-16T21:00:57.895Z,4.88
2023-03-16T21:03:30.886Z,3.58
2023-03-16T21:05:59.955Z,3.72
2023-03-16T21:08:27.426Z,3.45
2023-03-16T21:10:57.172Z,3.40
2023-03-16T21:13:31.507Z,2.55
2023-03-16T21:16:01.710Z,3.17
2023-03-16T21:18:30.497Z,2.70
2023-03-16T21:20:58.910Z,2.58
2023-03-16T21:23:26.291Z,2.80
2023-03-16T21:25:59.679Z,2.78
2023-03-16T21:28:29.676Z,2.90
2023-03-16T21:30:58.150Z,1.98
2023-03-16T21:33:32.921Z,2.05
2023-03-16T21:36:01.325Z,2.08
2023-03-16T21:38:30.695Z,2.42
2023-03-16T21:40:58.942Z,2.75
2023-03-16T21:43:27.126Z,3.47
2023-03-16T21:45:55.372Z,2.45
2023-03-16T21:48:25.383Z,2.95
2023-03-16T21:50:53.986Z,2.97
2023-03-16T21:53:28.244Z,3.50
2023-03-16T21:55:56.469Z,2.85
2023-03-16T21:58:24.376Z,2.97
2023-03-16T22:00:53.851Z,2.83
2023-03-16T22:03:24.076Z,3.15
2023-03-16T22:05:52.686Z,2.45
2023-03-16T22:08:27.109Z,2.75
2023-03-16T22:10:55.498Z,3.00
2023-03-16T22:13:24.220Z,2.90
2023-03-16T22:15:53.081Z,2.72
2023-03-16T22:18:36.921Z,2.22
2023-03-16T22:21:20.345Z,2.90
2023-03-16T22:23:48.134Z,2.45
2023-03-16T22:26:18.588Z,2.70
2023-03-16T22:28:50.038Z,2.63
2023-03-16T22:31:20.040Z,3.47
2023-03-16T22:33:48.787Z,2.88
2023-03-16T22:36:19.885Z,2.80
2023-03-16T22:38:52.940Z,2.65
2023-03-16T22:41:20.571Z,3.25
2023-03-16T22:43:48.040Z,2.90
2023-03-16T22:46:26.924Z,2.60
2023-03-16T22:48:55.650Z,3.20
2023-03-16T22:51:29.205Z,2.63
2023-03-16T22:54:02.609Z,2.75
2023-03-16T22:56:32.184Z,2.40
2023-03-16T22:59:03.093Z,2.55
2023-03-16T23:01:39.519Z,4.00
2023-03-16T23:04:19.254Z,3.28
2023-03-16T23:06:48.759Z,2.28
2023-03-16T23:09:17.366Z,2.78
2023-03-16T23:11:46.436Z,3.25
2023-03-16T23:14:21.945Z,2.70
2023-03-16T23:16:50.333Z,2.92
2023-03-16T23:19:25.145Z,2.60
2023-03-16T23:21:54.870Z,3.17
2023-03-16T23:24:22.952Z,2.85
2023-03-16T23:26:51.377Z,2.90
2023-03-16T23:29:18.916Z,3.08
2023-03-16T23:31:46.693Z,2.85
2023-03-16T23:34:16.730Z,2.80
2023-03-16T23:36:43.896Z,3.22
2023-03-16T23:39:11.576Z,3.15
2023-03-16T23:41:41.744Z,3.25
2023-03-16T23:44:12.422Z,3.30
2023-03-16T23:46:39.600Z,3.40
2023-03-16T23:49:06.879Z,2.80
2023-03-16T23:51:37.918Z,2.47
2023-03-16T23:54:17.933Z,3.25
2023-03-16T23:56:45.172Z,2.33
2023-03-16T23:59:12.517Z,3.00
